Time;durP1;ratioP1;P1;durP2;ratioP2;P2;SDS_P1;SDS_P2;PMS_P1;PMS_P2;Temp;Humidity;BMP_temperature;BMP_pressure;BME280_temperature;BME280_humidity;BME280_pressure;Samples;Min_cycle;Max_cycle;Signal;HPM_P1;HPM_P2
2021/04/10 00:01:41;;;;;;;11.10;7.60;;;;;;;20.90;30.88;100377.47;1791605;79;21137;-16
2021/04/10 00:04:11;;;;;;;12.15;7.90;;;;;;;20.90;30.99;100378.80;1768640;79;21187;-16
2021/04/10 00:06:39;;;;;;;12.78;7.90;;;;;;;20.90;31.02;100364.09;1803452;79;21152;-16
2021/04/10 00:09:07;;;;;;;10.15;7.47;;;;;;;20.92;31.10;100367.52;1756692;79;21141;-16
2021/04/10 00:11:36;;;;;;;11.15;7.58;;;;;;;20.92;31.14;100367.52;1795287;79;21155;-16
2021/04/10 00:14:07;;;;;;;11.28;7.15;;;;;;;20.93;31.14;100363.41;1752748;79;21181;-15
2021/04/10 00:16:35;;;;;;;9.90;7.25;;;;;;;20.94;31.09;100365.59;1760619;80;21200;-16
2021/04/10 00:19:04;;;;;;;10.48;7.15;;;;;;;20.94;31.08;100367.78;1787721;78;21245;-16
2021/04/10 00:21:31;;;;;;;8.45;6.47;;;;;;;20.95;31.08;100367.33;1788352;78;21218;-16
2021/04/10 00:23:58;;;;;;;10.88;7.25;;;;;;;20.94;31.04;100366.45;1786244;79;21225;-16
2021/04/10 00:26:26;;;;;;;8.20;6.30;;;;;;;20.96;31.14;100366.35;1797343;79;21141;-17
2021/04/10 00:28:53;;;;;;;8.88;6.47;;;;;;;20.95;31.24;100365.50;1754320;79;21160;-15
2021/04/10 00:31:21;;;;;;;11.88;6.87;;;;;;;20.95;31.30;100366.84;1775959;79;21210;-16
2021/04/10 00:33:48;;;;;;;9.68;6.30;;;;;;;20.98;31.27;100372.48;1784764;79;21154;-16
2021/04/10 00:36:17;;;;;;;9.83;6.58;;;;;;;20.96;31.11;100366.35;1784916;79;21481;-17
2021/04/10 00:38:45;;;;;;;9.38;6.55;;;;;;;20.97;31.05;100368.93;1775542;78;21164;-16
2021/04/10 00:41:12;;;;;;;9.68;6.25;;;;;;;20.97;31.00;100368.08;1778248;79;21363;-15
2021/04/10 00:43:40;;;;;;;9.13;6.53;;;;;;;20.96;30.94;100370.36;1749669;79;21180;-15
2021/04/10 00:46:08;;;;;;;10.43;6.25;;;;;;;20.95;30.94;100367.33;1751879;79;21197;-15
2021/04/10 00:48:36;;;;;;;7.67;6.08;;;;;;;20.96;30.92;100365.02;1764680;79;21145;-16
2021/04/10 00:51:03;;;;;;;9.75;6.55;;;;;;;20.95;30.82;100365.98;1789881;79;21205;-16
2021/04/10 00:53:32;;;;;;;8.73;6.60;;;;;;;20.94;30.81;100366.94;1793108;79;22057;-16
2021/04/10 00:56:04;;;;;;;11.12;6.75;;;;;;;20.95;30.76;100364.66;1793636;79;21232;-15
2021/04/10 00:58:32;;;;;;;8.75;7.30;;;;;;;20.94;30.76;100364.26;1748510;81;21136;-16
2021/04/10 01:01:02;;;;;;;8.60;6.62;;;;;;;20.95;30.75;100379.36;1780859;79;21178;-15
2021/04/10 01:03:31;;;;;;;11.80;7.47;;;;;;;20.93;30.70;100371.44;1739352;81;21193;-16
2021/04/10 01:05:59;;;;;;;9.65;6.72;;;;;;;20.93;30.81;100375.91;1785033;79;21662;-15
2021/04/10 01:08:28;;;;;;;11.30;7.20;;;;;;;20.93;30.81;100380.80;1728397;81;21660;-16
2021/04/10 01:11:19;;;;;;;9.45;6.78;;;;;;;20.93;30.75;100374.56;1729727;81;21229;-16
2021/04/10 01:13:56;;;;;;;9.05;6.08;;;;;;;20.93;30.74;100374.11;1786147;79;21199;-15
2021/04/10 01:16:30;;;;;;;8.98;6.53;;;;;;;20.92;30.64;100375.55;1778210;78;21102;-16
2021/04/10 01:19:22;;;;;;;8.25;6.75;;;;;;;20.93;30.67;100377.24;1770268;78;21596;-17
2021/04/10 01:21:54;;;;;;;9.83;6.87;;;;;;;20.92;30.74;100375.55;1759462;79;21145;-16
2021/04/10 01:24:46;;;;;;;7.20;6.22;;;;;;;20.92;30.78;100378.22;1788140;79;21240;-17
2021/04/10 01:27:39;;;;;;;7.92;6.30;;;;;;;20.91;30.90;100378.70;1781348;79;21190;-17
2021/04/10 01:30:12;;;;;;;7.42;5.90;;;;;;;20.91;30.85;100381.84;1753925;81;21643;-17
2021/04/10 01:32:54;;;;;;;7.70;6.20;;;;;;;20.91;30.89;100380.50;1709398;82;21248;-16
2021/04/10 01:35:25;;;;;;;9.10;6.10;;;;;;;20.91;30.99;100378.70;1749216;79;21203;-16
2021/04/10 01:38:01;;;;;;;7.17;5.72;;;;;;;20.92;30.95;100376.39;1757183;79;21603;-16
2021/04/10 01:40:31;;;;;;;7.72;5.97;;;;;;;20.93;31.04;100377.24;1746019;79;21204;-15
2021/04/10 01:42:59;;;;;;;11.08;5.85;;;;;;;20.94;31.15;100381.64;1778020;78;21685;-16
2021/04/10 01:45:27;;;;;;;7.97;5.78;;;;;;;20.95;31.14;100378.03;1804101;77;21182;-16
2021/04/10 01:47:58;;;;;;;7.72;6.10;;;;;;;20.97;31.23;100380.12;1775345;79;21708;-16
2021/04/10 01:50:26;;;;;;;8.45;5.85;;;;;;;20.97;31.27;100384.98;1786698;79;21221;-16
2021/04/10 01:52:55;;;;;;;7.10;5.78;;;;;;;21.00;31.36;100378.59;1776203;79;22099;-15
2021/04/10 01:55:23;;;;;;;7.47;5.50;;;;;;;21.01;31.38;100380.28;1768125;79;21168;-15
2021/04/10 01:57:54;;;;;;;5.92;5.33;;;;;;;21.02;31.40;100382.50;1781547;79;21191;-16
2021/04/10 02:00:27;;;;;;;5.55;5.05;;;;;;;21.04;31.51;100376.08;1797747;79;21205;-15
2021/04/10 02:02:55;;;;;;;8.48;5.42;;;;;;;21.05;31.43;100375.13;1775814;79;21200;-15
2021/04/10 02:05:24;;;;;;;7.37;5.42;;;;;;;21.07;31.47;100379.05;1788048;79;21598;-15
2021/04/10 02:07:54;;;;;;;6.37;5.10;;;;;;;21.08;31.59;100377.62;1734446;81;21172;-17
2021/04/10 02:10:26;;;;;;;6.47;5.08;;;;;;;21.09;31.44;100383.33;1736703;81;22144;-16
2021/04/10 02:13:01;;;;;;;6.72;5.35;;;;;;;21.10;31.51;100377.03;1690617;83;21272;-17
2021/04/10 02:15:42;;;;;;;7.25;5.50;;;;;;;21.15;31.51;100379.42;1799526;77;22660;-14
2021/04/10 02:18:11;;;;;;;8.15;5.40;;;;;;;21.12;31.49;100381.80;1775309;78;21495;-14
2021/04/10 02:20:39;;;;;;;6.30;5.33;;;;;;;21.13;31.53;100381.31;1750933;80;21639;-15
2021/04/10 02:23:09;;;;;;;9.18;5.10;;;;;;;21.13;31.38;100386.66;1764844;80;21658;-16
2021/04/10 02:25:42;;;;;;;9.35;5.20;;;;;;;21.13;31.42;100384.87;1782720;78;21480;-14
2021/04/10 02:28:13;;;;;;;6.50;5.78;;;;;;;21.14;31.41;100379.87;1790170;78;21175;-16
2021/04/10 02:30:43;;;;;;;6.03;4.83;;;;;;;21.15;31.39;100386.11;1744122;80;21224;-15
2021/04/10 02:33:23;;;;;;;9.63;5.45;;;;;;;21.14;31.30;100378.54;1741744;80;21449;-16
2021/04/10 02:35:53;;;;;;;8.93;5.30;;;;;;;21.15;31.30;100375.41;1696616;81;21149;-15
2021/04/10 02:38:22;;;;;;;5.42;4.70;;;;;;;21.13;31.33;100376.84;1711733;83;21245;-15
2021/04/10 02:40:57;;;;;;;6.65;5.42;;;;;;;21.13;31.35;100379.52;1723839;80;21620;-16
2021/04/10 02:43:28;;;;;;;5.12;4.50;;;;;;;21.13;31.34;100383.53;1687880;82;21255;-16
2021/04/10 02:46:01;;;;;;;6.62;5.22;;;;;;;21.12;31.35;100385.81;1725157;81;21191;-16
2021/04/10 02:48:52;;;;;;;6.92;5.17;;;;;;;21.12;31.34;100379.13;1695928;81;21246;-15
2021/04/10 02:51:19;;;;;;;6.65;4.92;;;;;;;21.11;31.22;100373.38;1749760;80;21166;-16
2021/04/10 02:53:47;;;;;;;5.97;5.28;;;;;;;21.11;31.29;100382.74;1697690;81;21229;-16
2021/04/10 02:56:15;;;;;;;9.40;5.45;;;;;;;21.10;31.34;100385.06;1720855;81;21726;-15
2021/04/10 02:58:48;;;;;;;6.67;4.87;;;;;;;21.09;31.45;100377.13;1716927;81;22013;-16
2021/04/10 03:01:18;;;;;;;5.87;5.00;;;;;;;21.09;31.45;100382.48;1704361;80;21209;-16
2021/04/10 03:03:47;;;;;;;5.47;4.95;;;;;;;21.07;31.44;100376.37;1736263;80;21217;-16
2021/04/10 03:06:15;;;;;;;5.35;4.35;;;;;;;21.07;31.60;100381.23;1729851;81;21206;-15
2021/04/10 03:08:46;;;;;;;5.25;4.75;;;;;;;21.07;31.53;100382.58;1739760;80;21134;-15
2021/04/10 03:11:16;;;;;;;7.45;4.62;;;;;;;21.07;31.47;100388.42;1718993;81;21908;-15
2021/04/10 03:13:44;;;;;;;5.22;4.58;;;;;;;21.06;31.57;100388.88;1731789;80;21666;-15
2021/04/10 03:16:13;;;;;;;6.80;5.05;;;;;;;21.06;31.61;100392.89;1709342;81;21155;-15
2021/04/10 03:18:46;;;;;;;5.65;4.92;;;;;;;21.05;31.80;100396.55;1740834;79;21197;-16
2021/04/10 03:21:14;;;;;;;6.33;4.50;;;;;;;21.05;31.72;100403.23;1759904;79;21224;-15
2021/04/10 03:23:43;;;;;;;5.45;4.95;;;;;;;21.04;31.69;100404.17;1766605;79;21390;-16
2021/04/10 03:26:13;;;;;;;5.90;4.67;;;;;;;21.05;31.64;100401.89;1759010;79;21209;-16
2021/04/10 03:28:41;;;;;;;6.50;4.95;;;;;;;21.05;31.77;100402.38;1761403;79;21169;-16
2021/04/10 03:31:09;;;;;;;4.90;4.42;;;;;;;21.04;31.78;100406.85;1727188;80;21241;-14
2021/04/10 03:33:38;;;;;;;7.08;4.60;;;;;;;21.06;31.75;100409.43;1740271;80;21549;-16
2021/04/10 03:36:08;;;;;;;4.97;4.35;;;;;;;21.09;31.69;100406.56;1750952;79;22001;-15
2021/04/10 03:38:37;;;;;;;5.20;4.40;;;;;;;21.12;31.58;100402.36;1771569;79;21214;-17
2021/04/10 03:41:06;;;;;;;8.00;4.95;;;;;;;21.15;31.48;100405.69;1750220;80;21145;-17
2021/04/10 03:43:35;;;;;;;7.10;4.72;;;;;;;21.21;31.27;100405.76;1760167;79;21216;-15
2021/04/10 03:46:03;;;;;;;5.75;4.62;;;;;;;21.28;31.08;100406.22;1753393;80;21471;-16
2021/04/10 03:48:31;;;;;;;6.03;4.20;;;;;;;21.34;30.98;100409.36;1744727;79;21189;-16
2021/04/10 03:51:05;;;;;;;5.87;4.58;;;;;;;21.43;31.02;100405.21;1725785;79;21687;-16
2021/04/10 03:53:34;;;;;;;5.35;4.10;;;;;;;21.55;31.48;100410.76;1698880;82;21194;-16
2021/04/10 03:56:05;;;;;;;5.33;4.15;;;;;;;21.68;31.65;100406.30;1746228;79;21204;-15
2021/04/10 03:58:35;;;;;;;5.10;4.60;;;;;;;21.85;31.51;100408.69;1752652;79;21129;-15
2021/04/10 04:01:02;;;;;;;4.62;4.20;;;;;;;22.01;31.27;100406.34;1725310;80;21220;-16
2021/04/10 04:03:30;;;;;;;4.30;3.80;;;;;;;22.19;31.01;100407.76;1752408;79;21204;-16
2021/04/10 04:06:01;;;;;;;6.00;4.00;;;;;;;22.39;30.99;100402.84;1740953;80;22203;-15
2021/04/10 04:08:28;;;;;;;4.78;3.98;;;;;;;22.61;30.68;100403.07;1756624;80;21177;-16
2021/04/10 04:10:56;;;;;;;4.83;4.25;;;;;;;22.84;30.27;100401.89;1766931;79;21228;-15
2021/04/10 04:13:23;;;;;;;6.47;3.98;;;;;;;23.07;29.97;100402.11;1773372;79;21205;-16
2021/04/10 04:15:51;;;;;;;10.00;3.80;;;;;;;23.28;29.76;100397.82;1778230;79;21242;-16
2021/04/10 04:18:18;;;;;;;5.72;3.70;;;;;;;23.50;29.54;100405.63;1780788;79;21161;-16
2021/04/10 04:20:46;;;;;;;5.95;3.98;;;;;;;23.69;29.36;100407.32;1747023;80;21133;-15
2021/04/10 04:23:14;;;;;;;4.60;3.60;;;;;;;23.91;29.15;100405.73;1741972;80;21226;-15
2021/04/10 04:25:41;;;;;;;4.78;3.40;;;;;;;24.09;28.97;100411.03;1747660;80;22027;-15
2021/04/10 04:28:09;;;;;;;4.12;3.72;;;;;;;24.28;28.77;100405.08;1778349;79;21662;-15
2021/04/10 04:30:37;;;;;;;4.53;3.60;;;;;;;24.47;28.61;100405.83;1778973;79;21212;-14
2021/04/10 04:33:04;;;;;;;3.90;3.52;;;;;;;24.64;28.44;100403.67;1752768;80;21227;-15
2021/04/10 04:35:32;;;;;;;3.67;3.37;;;;;;;24.80;28.24;100405.51;1778758;79;21143;-15
2021/04/10 04:37:59;;;;;;;3.80;3.40;;;;;;;24.95;28.11;100407.92;1747939;80;21653;-15
2021/04/10 04:40:28;;;;;;;4.87;3.83;;;;;;;25.11;27.96;100410.25;1780074;80;21127;-14
2021/04/10 04:42:55;;;;;;;4.58;3.25;;;;;;;25.24;27.81;100414.16;1758457;79;21186;-16
2021/04/10 04:45:24;;;;;;;8.93;4.70;;;;;;;25.35;27.80;100404.70;1762152;79;21169;-16
2021/04/10 04:47:52;;;;;;;6.35;5.28;;;;;;;25.39;25.04;100410.23;1755015;79;21119;-16
2021/04/10 04:50:20;;;;;;;16.42;10.90;;;;;;;25.28;23.81;100407.05;1735290;80;21216;-16
2021/04/10 04:52:47;;;;;;;12.63;8.20;;;;;;;25.08;22.69;100409.99;1733845;81;21198;-17
2021/04/10 04:55:15;;;;;;;12.55;7.05;;;;;;;24.82;22.66;100414.81;1762274;79;21190;-16
2021/04/10 04:57:43;;;;;;;10.13;6.28;;;;;;;24.53;22.42;100416.61;1774580;79;21213;-17
2021/04/10 05:00:14;;;;;;;6.90;5.67;;;;;;;24.23;22.13;100410.45;1772373;79;21660;-17
2021/04/10 05:02:42;;;;;;;6.17;5.40;;;;;;;23.94;21.87;100406.84;1778367;79;21206;-16
2021/04/10 05:05:12;;;;;;;7.20;5.37;;;;;;;23.66;22.13;100404.86;1774680;79;21598;-16
2021/04/10 05:07:40;;;;;;;5.50;4.83;;;;;;;23.49;22.19;100410.66;1778511;79;21633;-16
2021/04/10 05:10:09;;;;;;;5.55;4.53;;;;;;;23.32;22.16;100404.70;1776826;79;21211;-17
2021/04/10 05:12:37;;;;;;;5.33;4.75;;;;;;;23.20;22.63;100406.95;1778422;79;21211;-16
2021/04/10 05:15:07;;;;;;;8.70;4.58;;;;;;;23.10;22.94;100403.20;1769142;79;21204;-16
2021/04/10 05:17:34;;;;;;;6.67;4.47;;;;;;;22.98;23.19;100404.45;1755767;79;21684;-17
2021/04/10 05:20:07;;;;;;;6.95;4.60;;;;;;;22.89;23.15;100407.78;1737810;80;21225;-17
2021/04/10 05:22:35;;;;;;;5.50;4.53;;;;;;;22.80;23.51;100409.31;1741353;80;21655;-17
2021/04/10 05:25:04;;;;;;;5.35;4.80;;;;;;;22.71;23.50;100408.64;1759311;79;21153;-16
2021/04/10 05:27:31;;;;;;;5.47;4.33;;;;;;;22.64;23.51;100412.70;1777565;79;21251;-17
2021/04/10 05:29:59;;;;;;;6.80;5.22;;;;;;;22.57;23.80;100416.30;1748329;80;21066;-17
2021/04/10 05:32:28;;;;;;;7.72;5.10;;;;;;;22.49;23.50;100417.81;1755237;79;21246;-16
2021/04/10 05:34:56;;;;;;;10.50;6.00;;;;;;;22.38;23.95;100411.88;1761345;80;21192;-16
2021/04/10 05:37:23;;;;;;;14.70;5.97;;;;;;;22.33;24.93;100415.36;1748644;80;21290;-16
2021/04/10 05:39:51;;;;;;;14.65;6.55;;;;;;;22.30;26.47;100421.78;1682681;82;21214;-18
2021/04/10 05:42:18;;;;;;;17.10;6.47;;;;;;;22.26;27.47;100418.42;1747434;79;21228;-16
2021/04/10 05:44:46;;;;;;;20.27;7.12;;;;;;;22.26;28.76;100422.94;1734284;79;21248;-16
2021/04/10 05:47:14;;;;;;;19.50;6.92;;;;;;;22.23;28.82;100417.78;1717434;82;21220;-17
2021/04/10 05:49:42;;;;;;;18.48;6.05;;;;;;;22.20;27.83;100423.34;1756050;79;21221;-17
2021/04/10 05:52:10;;;;;;;13.05;6.05;;;;;;;22.14;28.40;100423.30;1722408;80;21185;-17
2021/04/10 05:54:37;;;;;;;12.35;6.03;;;;;;;22.11;28.36;100423.50;1757380;79;21232;-18
2021/04/10 05:57:06;;;;;;;12.05;5.33;;;;;;;22.07;27.77;100424.66;1764376;80;21154;-17
2021/04/10 05:59:33;;;;;;;14.23;5.78;;;;;;;22.00;27.61;100429.58;1756532;80;22130;-18
2021/04/10 06:02:05;;;;;;;15.18;5.12;;;;;;;21.94;28.26;100430.47;1752724;79;21757;-16
2021/04/10 06:04:34;;;;;;;11.60;5.80;;;;;;;21.92;29.09;100426.55;1739897;79;22076;-17
2021/04/10 06:07:02;;;;;;;10.20;5.25;;;;;;;21.91;28.49;100426.20;1764259;79;22107;-17
2021/04/10 06:09:31;;;;;;;11.68;5.40;;;;;;;21.87;27.81;100428.23;1763476;79;21664;-16
2021/04/10 06:11:59;;;;;;;16.15;6.65;;;;;;;21.82;27.44;100428.14;1735529;79;21260;-16
2021/04/10 06:14:27;;;;;;;8.55;6.20;;;;;;;21.73;27.15;100428.28;1746652;79;21227;-17
2021/04/10 06:16:54;;;;;;;9.45;5.67;;;;;;;21.61;25.88;100426.43;1750225;79;21227;-17
2021/04/10 06:19:22;;;;;;;11.40;5.90;;;;;;;21.49;26.13;100426.76;1746951;79;21236;-16
2021/04/10 06:21:49;;;;;;;9.45;5.42;;;;;;;21.38;26.31;100422.06;1749510;79;21137;-16
2021/04/10 06:24:18;;;;;;;7.40;4.97;;;;;;;21.27;26.27;100421.92;1761124;80;21191;-18
2021/04/10 06:26:46;;;;;;;7.30;5.10;;;;;;;21.18;27.00;100433.20;1744362;81;21173;-17
2021/04/10 06:29:14;;;;;;;9.00;5.50;;;;;;;21.16;27.37;100426.61;1760909;79;21220;-17
2021/04/10 06:31:42;;;;;;;11.05;5.80;;;;;;;21.19;27.36;100425.57;1747684;79;21192;-15
2021/04/10 06:34:09;;;;;;;14.05;5.05;;;;;;;21.19;27.02;100429.58;1754074;79;21204;-16
2021/04/10 06:36:37;;;;;;;7.45;4.65;;;;;;;21.14;26.45;100429.87;1769448;80;21139;-17
2021/04/10 06:39:05;;;;;;;11.35;4.95;;;;;;;21.07;26.95;100425.39;1741372;80;21273;-17
2021/04/10 06:41:38;;;;;;;9.85;5.30;;;;;;;21.07;27.21;100433.41;1769163;80;21214;-16
2021/04/10 06:44:08;;;;;;;9.55;5.00;;;;;;;21.04;26.85;100424.24;1760070;80;21235;-17
2021/04/10 06:46:35;;;;;;;8.83;5.00;;;;;;;21.02;27.36;100418.62;1747407;80;21204;-17
2021/04/10 06:49:04;;;;;;;12.78;4.75;;;;;;;21.01;27.30;100423.09;1764080;80;21659;-15
2021/04/10 06:51:33;;;;;;;11.00;5.53;;;;;;;21.02;27.28;100427.98;1760012;79;21204;-15
2021/04/10 06:54:00;;;;;;;9.08;4.67;;;;;;;21.01;26.62;100425.77;1759788;79;21679;-17
2021/04/10 06:56:28;;;;;;;11.18;4.62;;;;;;;21.02;26.65;100424.83;1736247;80;21176;-16
2021/04/10 06:59:17;;;;;;;9.28;4.42;;;;;;;21.02;26.35;100431.52;1746941;80;21217;-16
2021/04/10 07:01:45;;;;;;;10.40;4.50;;;;;;;21.03;26.20;100429.69;1763764;79;21252;-17
2021/04/10 07:04:12;;;;;;;7.60;5.00;;;;;;;21.00;25.69;100426.75;1761924;79;21232;-17
2021/04/10 07:06:41;;;;;;;5.33;3.95;;;;;;;20.96;25.41;100429.22;1759023;79;21364;-15
2021/04/10 07:09:12;;;;;;;8.53;4.50;;;;;;;20.93;25.45;100427.61;1760361;79;21219;-15
2021/04/10 07:11:41;;;;;;;6.95;4.72;;;;;;;20.91;25.17;100427.31;1755790;79;21233;-16
2021/04/10 07:14:09;;;;;;;5.10;4.00;;;;;;;20.91;25.45;100435.34;1721713;79;21268;-15
2021/04/10 07:16:38;;;;;;;6.37;4.62;;;;;;;20.89;25.13;100437.26;1707399;82;21134;-16
2021/04/10 07:19:12;;;;;;;7.15;4.30;;;;;;;20.87;25.04;100432.49;1753562;79;22184;-15
2021/04/10 07:21:40;;;;;;;5.20;4.00;;;;;;;20.85;25.14;100435.75;1753297;79;21668;-15
2021/04/10 07:24:08;;;;;;;7.22;4.40;;;;;;;20.86;25.59;100436.11;1729529;79;21229;-15
2021/04/10 07:26:52;;;;;;;8.00;4.33;;;;;;;20.88;26.56;100436.87;1732626;80;21699;-17
2021/04/10 07:29:42;;;;;;;8.40;4.00;;;;;;;20.93;27.31;100435.64;1746109;79;21208;-16
2021/04/10 07:32:35;;;;;;;7.12;3.58;;;;;;;21.00;28.13;100436.56;1754383;79;21222;-14
2021/04/10 07:35:09;;;;;;;11.73;3.62;;;;;;;21.08;28.64;100440.95;1749834;79;21217;-16
2021/04/10 07:37:42;;;;;;;4.87;3.58;;;;;;;21.17;28.95;100439.05;1759913;79;21162;-16
2021/04/10 07:40:25;;;;;;;7.00;4.70;;;;;;;21.23;28.87;100442.67;1770011;79;21200;-16
2021/04/10 07:42:53;;;;;;;7.72;4.78;;;;;;;21.27;27.53;100432.14;1733737;80;21221;-16
2021/04/10 07:45:32;;;;;;;5.50;3.95;;;;;;;21.29;27.39;100435.56;1712934;82;21895;-15
2021/04/10 07:48:10;;;;;;;4.83;4.37;;;;;;;21.28;26.60;100426.30;1758252;79;21130;-14
2021/04/10 07:50:38;;;;;;;5.17;4.30;;;;;;;21.26;26.02;100432.23;1746399;79;21200;-16
2021/04/10 07:53:21;;;;;;;10.90;4.40;;;;;;;21.21;25.01;100430.34;1747341;80;21213;-17
2021/04/10 07:55:51;;;;;;;4.33;3.87;;;;;;;21.14;25.26;100426.70;1749716;79;21641;-15
2021/04/10 07:58:32;;;;;;;8.80;6.33;;;;;;;21.15;27.41;100432.94;1755811;79;21362;-16
2021/04/10 08:01:05;;;;;;;13.90;10.80;;;;;;;21.24;27.76;100434.16;1711265;82;21146;-15
2021/04/10 08:03:48;;;;;;;16.52;12.63;;;;;;;21.35;27.68;100428.98;1754128;79;21208;-16
2021/04/10 08:06:20;;;;;;;18.52;13.80;;;;;;;21.46;27.21;100430.45;1727903;80;21229;-15
2021/04/10 08:08:57;;;;;;;14.90;12.25;;;;;;;21.57;26.60;100425.78;1752815;79;22279;-14
2021/04/10 08:11:37;;;;;;;13.93;10.10;;;;;;;21.67;26.15;100430.02;1753998;79;21439;-15
2021/04/10 08:14:12;;;;;;;13.13;8.83;;;;;;;21.76;25.76;100430.76;1763827;79;21173;-14
2021/04/10 08:16:50;;;;;;;10.63;7.17;;;;;;;21.85;25.38;100426.11;1761476;79;21161;-16
2021/04/10 08:19:29;;;;;;;16.07;6.20;;;;;;;21.94;25.08;100423.77;1754856;79;21145;-16
2021/04/10 08:21:57;;;;;;;12.07;5.08;;;;;;;22.00;24.60;100426.89;1758487;80;21141;-15
2021/04/10 08:24:34;;;;;;;10.23;5.05;;;;;;;22.08;24.53;100412.98;1728111;80;21149;-16
2021/04/10 08:27:12;;;;;;;7.28;4.20;;;;;;;22.13;24.31;100418.89;1759761;79;21658;-16
2021/04/10 08:29:41;;;;;;;5.83;4.75;;;;;;;22.19;23.96;100418.48;1742060;80;21656;-16
2021/04/10 08:32:10;;;;;;;5.40;4.20;;;;;;;22.24;23.68;100417.68;1773142;79;21224;-16
2021/04/10 08:34:37;;;;;;;5.47;3.90;;;;;;;22.29;23.66;100415.18;1764843;79;21176;-14
2021/04/10 08:37:08;;;;;;;5.35;4.10;;;;;;;22.34;23.61;100423.30;1726112;80;21197;-15
2021/04/10 08:39:44;;;;;;;5.70;3.17;;;;;;;22.40;23.19;100416.64;1742697;79;21612;-16
2021/04/10 08:42:13;;;;;;;5.87;3.45;;;;;;;22.45;23.18;100418.52;1751364;79;21231;-15
2021/04/10 08:44:41;;;;;;;4.10;3.40;;;;;;;22.49;23.32;100421.34;1721175;79;21192;-14
2021/04/10 08:47:09;;;;;;;7.28;3.45;;;;;;;22.52;23.26;100418.45;1728815;80;21185;-16
2021/04/10 08:49:41;;;;;;;5.05;3.65;;;;;;;22.55;22.67;100414.71;1710260;82;21205;-16
2021/04/10 08:52:12;;;;;;;5.00;3.40;;;;;;;22.56;22.93;100409.24;1711793;80;21204;-15
2021/04/10 08:54:41;;;;;;;4.67;3.75;;;;;;;22.60;22.84;100409.39;1761046;79;21619;-15
2021/04/10 08:57:12;;;;;;;4.17;3.47;;;;;;;22.65;22.79;100402.86;1751951;80;21192;-15
2021/04/10 08:59:48;;;;;;;3.70;3.40;;;;;;;22.69;22.60;100413.73;1749897;79;21216;-16
2021/04/10 09:02:18;;;;;;;;;;;;;;;22.70;22.44;100406.06;1754365;79;21256;-16
2021/04/10 09:05:07;;;;;;;7.70;3.33;;;;;;;22.75;22.25;100405.25;1746435;79;20273;-17
2021/04/10 09:07:53;;;;;;;5.40;3.27;;;;;;;22.78;22.25;100405.04;1773351;79;21196;-16
2021/04/10 09:10:30;;;;;;;7.10;3.70;;;;;;;22.81;22.21;100404.79;1763929;79;21173;-16
2021/04/10 09:13:19;;;;;;;8.18;4.08;;;;;;;22.84;22.04;100404.58;1749339;79;21204;-16
2021/04/10 09:15:46;;;;;;;6.95;4.50;;;;;;;22.87;21.97;100404.36;1746767;81;21244;-15
2021/04/10 09:18:15;;;;;;;6.17;4.33;;;;;;;22.91;21.66;100405.00;1741503;80;21232;-15
2021/04/10 09:20:50;;;;;;;6.30;4.40;;;;;;;22.92;21.92;100394.16;1741437;81;21156;-16
2021/04/10 09:23:31;;;;;;;7.03;3.77;;;;;;;22.95;21.84;100395.28;1730218;79;21141;-15
2021/04/10 09:26:15;;;;;;;11.57;4.60;;;;;;;22.99;21.77;100395.41;1738837;81;21506;-16
2021/04/10 09:29:09;;;;;;;10.28;7.95;;;;;;;23.02;21.68;100391.66;1723411;79;22160;-16
2021/04/10 09:31:44;;;;;;;9.10;7.17;;;;;;;23.04;21.53;100394.23;1727444;81;21132;-16
2021/04/10 09:34:49;;;;;;;;;;;;;;;23.00;19.74;100381.03;1733190;81;21586;-14
2021/04/10 09:37:25;;;;;;;9.85;6.37;;;;;;;22.87;19.83;100386.92;1723263;81;20669;-16
2021/04/10 09:40:09;;;;;;;9.45;6.35;;;;;;;22.69;19.53;100381.53;1726505;81;21229;-17
2021/04/10 09:45:25;;;;;;;64.30;8.28;;;;;;;22.33;20.17;100384.53;1735198;81;21192;-16
2021/04/10 09:47:59;;;;;;;42.35;30.92;;;;;;;22.22;20.72;100384.73;1726376;81;21211;-16
2021/04/10 09:50:35;;;;;;;15.53;11.80;;;;;;;22.17;20.94;100388.70;1743758;81;21179;-16
2021/04/10 09:53:07;;;;;;;20.27;12.00;;;;;;;22.14;20.72;100387.12;1722670;79;21212;-16
2021/04/10 09:55:36;;;;;;;15.03;8.85;;;;;;;22.09;21.09;100385.23;1722233;81;21208;-16
2021/04/10 09:58:12;;;;;;;17.05;9.30;;;;;;;22.08;20.98;100384.84;1740627;81;22463;-15
2021/04/10 10:00:50;;;;;;;13.90;7.33;;;;;;;22.07;21.03;100381.78;1719853;81;21770;-15
2021/04/10 10:03:22;;;;;;;25.40;13.13;;;;;;;22.07;20.89;100369.72;1719808;81;21117;-16
2021/04/10 10:05:53;;;;;;;14.80;8.45;;;;;;;22.08;21.47;100379.48;1724304;81;21279;-16
2021/04/10 10:08:27;;;;;;;12.23;7.22;;;;;;;22.08;21.51;100377.66;1702832;81;21188;-20
2021/04/10 10:10:56;;;;;;;17.30;7.33;;;;;;;22.09;21.38;100367.81;1704766;81;21239;-17
2021/04/10 10:13:33;;;;;;;11.10;6.55;;;;;;;22.10;21.47;100371.34;1712162;83;21193;-17
2021/04/10 10:16:00;;;;;;;11.28;6.08;;;;;;;22.09;21.66;100362.45;1705985;80;21220;-17
2021/04/10 10:18:37;;;;;;;10.60;6.47;;;;;;;22.10;21.39;100358.80;1770196;79;21177;-18
2021/04/10 10:21:12;;;;;;;7.72;6.05;;;;;;;22.11;21.91;100362.33;1752827;80;21144;-17
2021/04/10 10:23:55;;;;;;;10.15;6.17;;;;;;;22.12;22.28;100362.71;1707442;82;21214;-17
2021/04/10 10:26:27;;;;;;;11.20;6.72;;;;;;;22.18;22.70;100356.94;1747271;79;21228;-17
2021/04/10 10:29:11;;;;;;;17.70;12.68;;;;;;;22.29;23.03;100361.07;1752138;79;21802;-17
2021/04/10 10:31:53;;;;;;;8.40;6.62;;;;;;;22.40;22.56;100363.02;1754933;79;21224;-16
2021/04/10 10:34:26;;;;;;;47.43;30.32;;;;;;;22.45;22.24;100356.34;1763038;79;22244;-16
2021/04/10 10:36:55;;;;;;;16.17;10.75;;;;;;;22.47;21.89;100354.90;1751699;80;22309;-17
2021/04/10 10:39:29;;;;;;;15.90;9.93;;;;;;;22.47;22.09;100350.88;1745369;80;21357;-17
2021/04/10 10:41:58;;;;;;;10.80;8.58;;;;;;;22.49;22.80;100342.73;1712960;82;21640;-16
2021/04/10 10:44:26;;;;;;;11.90;7.97;;;;;;;22.57;23.08;100345.72;1750806;79;21233;-17
2021/04/10 10:46:59;;;;;;;15.10;7.95;;;;;;;22.65;22.59;100342.50;1745368;79;21227;-17
2021/04/10 10:49:27;;;;;;;9.85;7.33;;;;;;;22.68;22.58;100347.62;1763731;79;21212;-17
2021/04/10 10:51:54;;;;;;;13.32;7.75;;;;;;;22.72;23.01;100341.09;1737136;80;21609;-17
2021/04/10 10:54:37;;;;;;;10.18;6.55;;;;;;;22.78;23.14;100334.79;1721582;81;21263;-18
2021/04/10 10:57:14;;;;;;;10.82;6.75;;;;;;;22.88;23.16;100338.13;1746316;79;21184;-17
2021/04/10 10:59:45;;;;;;;8.78;6.75;;;;;;;22.97;23.11;100320.02;1757066;79;21197;-16
2021/04/10 11:02:20;;;;;;;8.70;5.47;;;;;;;23.08;23.12;100324.63;1759238;79;21279;-16
2021/04/10 11:04:48;;;;;;;12.88;5.62;;;;;;;23.14;22.36;100320.15;1757694;79;21145;-17
2021/04/10 11:07:19;;;;;;;7.25;5.28;;;;;;;23.15;22.06;100320.03;1747600;79;21236;-16
2021/04/10 11:09:48;;;;;;;5.87;5.00;;;;;;;23.16;22.50;100314.17;1723224;81;21208;-16
2021/04/10 11:12:16;;;;;;;9.35;5.20;;;;;;;23.21;22.48;100312.00;1740729;80;21640;-17
2021/04/10 11:14:47;;;;;;;7.08;4.75;;;;;;;23.27;22.45;100310.20;1748720;80;21541;-16
2021/04/10 11:17:32;;;;;;;5.80;4.40;;;;;;;23.29;22.17;100308.25;1756504;79;21228;-16
2021/04/10 11:20:03;;;;;;;5.03;4.42;;;;;;;23.32;21.49;100308.53;1753591;79;21244;-17
2021/04/10 11:22:31;;;;;;;5.20;4.35;;;;;;;23.29;21.49;100310.09;1745693;80;21209;-16
2021/04/10 11:25:02;;;;;;;7.85;5.28;;;;;;;23.27;21.28;100312.05;1745561;80;21274;-16
2021/04/10 11:27:35;;;;;;;24.82;15.98;;;;;;;23.23;20.92;100306.02;1762393;79;21224;-17
2021/04/10 11:30:09;;;;;;;14.80;9.55;;;;;;;23.16;21.23;100304.78;1746860;79;21216;-16
2021/04/10 11:32:45;;;;;;;12.35;8.25;;;;;;;23.13;21.75;100295.14;1747463;79;21477;-17
2021/04/10 11:35:23;;;;;;;10.70;7.67;;;;;;;23.15;21.84;100301.74;1753548;79;21240;-15
2021/04/10 11:37:53;;;;;;;8.67;7.07;;;;;;;23.15;21.57;100285.63;1741581;79;21145;-17
2021/04/10 11:40:31;;;;;;;13.38;6.55;;;;;;;23.13;21.64;100294.27;1749226;80;21264;-17
2021/04/10 11:43:02;;;;;;;11.25;6.33;;;;;;;23.11;21.90;100296.22;1754598;79;21228;-17
2021/04/10 11:45:38;;;;;;;10.53;6.17;;;;;;;23.10;22.39;100280.60;1758326;79;21156;-17